createdAt,value
2022-08-07T00:00:06.401Z,102347.02
2022-08-07T00:01:44.232Z,102344.27
2022-08-07T00:02:58.538Z,102339.23
2022-08-07T00:04:03.399Z,102341.15
2022-08-07T00:05:06.729Z,102340.16
2022-08-07T00:06:09.698Z,102339.83
2022-08-07T00:07:13.738Z,102339.45
2022-08-07T00:08:19.582Z,102339.90
2022-08-07T00:09:29.162Z,102340.20
2022-08-07T00:10:47.624Z,102342.23
2022-08-07T00:11:56.179Z,102341.98
2022-08-07T00:13:17.421Z,102340.50
2022-08-07T00:14:31.041Z,102340.21
2022-08-07T00:15:38.606Z,102337.01
2022-08-07T00:16:49.847Z,102336.50
2022-08-07T00:17:52.922Z,102338.42
2022-08-07T00:18:56.126Z,102337.50
2022-08-07T00:20:01.040Z,102339.58
2022-08-07T00:21:08.310Z,102339.33
2022-08-07T00:22:35.042Z,102340.19
2022-08-07T00:23:40.242Z,102341.77
2022-08-07T00:24:43.561Z,102343.14
2022-08-07T00:25:58.181Z,102343.71
2022-08-07T00:27:07.562Z,102347.77
2022-08-07T00:28:12.140Z,102343.48
2022-08-07T00:29:19.300Z,102348.08
2022-08-07T00:30:28.572Z,102348.50
2022-08-07T00:31:37.317Z,102348.37
2022-08-07T00:32:41.448Z,102352.45
2022-08-07T00:33:47.674Z,102348.83
2022-08-07T00:34:50.881Z,102348.90
2022-08-07T00:35:57.651Z,102348.23
2022-08-07T00:37:00.614Z,102349.95
2022-08-07T00:38:04.683Z,102346.25
2022-08-07T00:39:07.648Z,102345.30
2022-08-07T00:40:36.362Z,102347.20
2022-08-07T00:41:53.569Z,102341.95
2022-08-07T00:43:09.455Z,102343.54
2022-08-07T00:44:12.526Z,102340.89
2022-08-07T00:45:18.163Z,102346.08
2022-08-07T00:46:21.261Z,102343.63
2022-08-07T00:48:07.593Z,102343.03
2022-08-07T00:48:49.895Z,102339.35
2022-08-07T00:50:19.249Z,102339.98
2022-08-07T00:51:17.540Z,102336.48
2022-08-07T00:52:20.503Z,102338.60
2022-08-07T00:53:23.724Z,102337.86
2022-08-07T00:54:26.628Z,102337.41
2022-08-07T00:56:00.759Z,102335.27
2022-08-07T00:56:53.545Z,102339.98
2022-08-07T00:57:56.715Z,102339.70
2022-08-07T00:59:00.290Z,102339.83
2022-08-07T01:00:07.493Z,102340.02
2022-08-07T01:01:11.217Z,102343.43
2022-08-07T01:02:28.838Z,102339.64
2022-08-07T01:03:56.314Z,102343.69
2022-08-07T01:04:58.852Z,102341.93
2022-08-07T01:06:03.191Z,102337.33
2022-08-07T01:07:06.968Z,102337.56
2022-08-07T01:08:11.199Z,102341.27
2022-08-07T01:10:04.780Z,102341.71
2022-08-07T01:10:39.399Z,102338.68
2022-08-07T01:12:09.829Z,102336.86
2022-08-07T01:13:17.135Z,102335.14
2022-08-07T01:14:28.388Z,102334.19
2022-08-07T01:16:00.925Z,102334.26
2022-08-07T01:16:58.232Z,102339.11
2022-08-07T01:18:03.643Z,102338.91
2022-08-07T01:19:14.827Z,102337.12
2022-08-07T01:20:28.302Z,102339.91
2022-08-07T01:21:34.163Z,102340.26
2022-08-07T01:22:56.570Z,102342.05
2022-08-07T01:24:04.784Z,102342.29
2022-08-07T01:25:54.398Z,102339.29
2022-08-07T01:26:32.319Z,102342.83
2022-08-07T01:27:35.551Z,102338.65
2022-08-07T01:28:45.876Z,102337.74
2022-08-07T01:29:53.860Z,102339.35
2022-08-07T01:32:38.095Z,102342.39
2022-08-07T01:33:55.974Z,102341.42
2022-08-07T01:35:03.015Z,102339.26
2022-08-07T01:36:09.961Z,102338.34
2022-08-07T01:37:17.397Z,102337.38
2022-08-07T01:38:24.972Z,102336.97
2022-08-07T01:39:41.134Z,102338.30
2022-08-07T01:41:03.294Z,102341.71
2022-08-07T01:42:36.861Z,102340.55
2022-08-07T01:43:38.374Z,102341.39
2022-08-07T01:44:43.533Z,102340.42
2022-08-07T01:45:54.356Z,102345.49
2022-08-07T01:47:01.252Z,102342.83
2022-08-07T01:48:29.856Z,102343.89
2022-08-07T01:49:35.696Z,102343.22
2022-08-07T01:50:43.089Z,102340.85
2022-08-07T01:52:03.694Z,102345.52
2022-08-07T01:53:10.438Z,102343.67
2022-08-07T01:54:37.034Z,102343.45
2022-08-07T01:55:47.477Z,102344.86
2022-08-07T01:56:50.741Z,102342.36
2022-08-07T01:58:05.676Z,102345.41
2022-08-07T01:59:15.643Z,102352.45
2022-08-07T02:00:19.028Z,102345.80
2022-08-07T02:01:59.829Z,102347.27
2022-08-07T02:03:19.160Z,102349.41
2022-08-07T02:04:27.748Z,102351.25
2022-08-07T02:05:53.593Z,102346.14
2022-08-07T02:07:04.672Z,102350.88
2022-08-07T02:08:14.964Z,102351.63
2022-08-07T02:09:52.279Z,102351.78
2022-08-07T02:10:44.343Z,102354.39
2022-08-07T02:12:04.942Z,102355.88
2022-08-07T02:13:12.455Z,102357.63
2022-08-07T02:14:40.203Z,102360.21
2022-08-07T02:15:49.036Z,102357.66
2022-08-07T02:16:56.907Z,102360.61
2022-08-07T02:18:02.808Z,102354.79
2022-08-07T02:20:05.628Z,102358.36
2022-08-07T02:20:34.780Z,102359.23
2022-08-07T02:21:56.726Z,102356.70
2022-08-07T02:23:03.241Z,102358.14
2022-08-07T02:24:06.923Z,102356.97
2022-08-07T02:25:18.115Z,102358.09
2022-08-07T02:26:32.969Z,102356.43
2022-08-07T02:27:41.017Z,102355.52
2022-08-07T02:28:44.934Z,102357.17
2022-08-07T02:29:54.618Z,102353.34
2022-08-07T02:31:10.058Z,102357.73
2022-08-07T02:32:23.472Z,102352.86
2022-08-07T02:33:33.000Z,102355.46
2022-08-07T02:34:56.345Z,102353.16
2022-08-07T02:36:28.645Z,102353.52
2022-08-07T02:37:26.504Z,102357.00
2022-08-07T02:38:32.207Z,102357.48
2022-08-07T02:39:43.495Z,102356.36
2022-08-07T02:41:04.900Z,102357.27
2022-08-07T02:42:14.646Z,102358.65
2022-08-07T02:43:20.050Z,102359.84
2022-08-07T02:44:27.465Z,102359.09
2022-08-07T02:45:58.462Z,102359.71
2022-08-07T02:46:59.224Z,102361.38
2022-08-07T02:48:05.279Z,102359.85
2022-08-07T02:49:28.842Z,102360.26
2022-08-07T02:50:41.761Z,102360.16
2022-08-07T02:51:51.885Z,102358.39
2022-08-07T02:53:10.838Z,102357.59
2022-08-07T02:54:15.360Z,102357.69
2022-08-07T02:55:28.445Z,102357.18
2022-08-07T02:56:48.693Z,102358.92
2022-08-07T02:57:53.822Z,102356.39
2022-08-07T02:58:59.154Z,102356.52
2022-08-07T03:00:11.080Z,102357.31
2022-08-07T03:01:19.071Z,102358.59
2022-08-07T03:02:41.886Z,102357.34
2022-08-07T03:03:58.634Z,102354.73
2022-08-07T03:05:06.980Z,102354.61
2022-08-07T03:06:16.314Z,102356.90
2022-08-07T03:07:58.967Z,102356.54
2022-08-07T03:08:52.853Z,102353.98
2022-08-07T03:09:56.046Z,102358.20
2022-08-07T03:10:59.720Z,102356.71
2022-08-07T03:12:08.180Z,102356.73
2022-08-07T03:13:25.609Z,102356.85
2022-08-07T03:14:30.863Z,102355.77
2022-08-07T03:15:47.701Z,102354.15
2022-08-07T03:16:57.625Z,102350.77
2022-08-07T03:18:00.943Z,102351.58
2022-08-07T03:19:04.850Z,102351.91
2022-08-07T03:20:08.694Z,102356.52
2022-08-07T03:21:19.026Z,102353.78
2022-08-07T03:22:24.139Z,102357.48
2022-08-07T03:23:33.662Z,102358.48
2022-08-07T03:24:37.596Z,102361.60
2022-08-07T03:25:42.382Z,102361.27
2022-08-07T03:26:51.107Z,102358.89
2022-08-07T03:28:09.462Z,102363.09
2022-08-07T03:29:27.683Z,102360.70
2022-08-07T03:30:32.176Z,102361.73
2022-08-07T03:31:42.729Z,102362.70
2022-08-07T03:32:59.137Z,102358.95
2022-08-07T03:34:05.984Z,102359.86
2022-08-07T03:35:18.307Z,102363.86
2022-08-07T03:36:29.944Z,102360.59
2022-08-07T03:37:45.978Z,102362.04
2022-08-07T03:39:05.592Z,102360.50
2022-08-07T03:40:15.447Z,102362.80
2022-08-07T03:41:20.079Z,102362.09
2022-08-07T03:42:44.153Z,102361.36
2022-08-07T03:43:56.945Z,102361.70
2022-08-07T03:45:02.313Z,102361.18
2022-08-07T03:46:10.583Z,102358.19
2022-08-07T03:47:23.419Z,102360.67
2022-08-07T03:48:29.715Z,102359.72
2022-08-07T03:49:33.852Z,102358.18
2022-08-07T03:50:37.156Z,102358.64
2022-08-07T03:51:47.372Z,102358.45
2022-08-07T03:52:52.108Z,102359.90
2022-08-07T03:54:33.318Z,102359.61
2022-08-07T03:55:18.738Z,102362.33
2022-08-07T03:56:33.073Z,102360.37
2022-08-07T03:58:35.343Z,102362.39
2022-08-07T03:59:09.969Z,102364.99
2022-08-07T04:00:21.028Z,102363.23
2022-08-07T04:01:33.197Z,102364.77
2022-08-07T04:02:43.039Z,102364.33
2022-08-07T04:03:56.221Z,102364.31
2022-08-07T04:05:01.056Z,102368.12
2022-08-07T04:06:07.929Z,102368.60
2022-08-07T04:07:41.724Z,102370.15
2022-08-07T04:08:49.273Z,102369.41
2022-08-07T04:09:53.130Z,102370.41
2022-08-07T04:12:15.361Z,102374.93
2022-08-07T04:12:27.115Z,102374.35
2022-08-07T04:14:10.952Z,102377.31
2022-08-07T04:14:57.150Z,102379.60
2022-08-07T04:16:00.748Z,102378.80
2022-08-07T04:17:04.361Z,102382.48
2022-08-07T04:18:57.083Z,102382.51
2022-08-07T04:19:51.536Z,102383.56
2022-08-07T04:20:57.266Z,102385.26
2022-08-07T04:22:08.590Z,102381.69
2022-08-07T04:23:19.148Z,102381.23
2022-08-07T04:24:30.431Z,102384.48
2022-08-07T04:25:39.110Z,102383.98
2022-08-07T04:26:44.276Z,102383.86
2022-08-07T04:27:59.347Z,102386.15
2022-08-07T04:29:04.263Z,102388.96
2022-08-07T04:30:11.644Z,102386.90
2022-08-07T04:31:38.689Z,102386.92
2022-08-07T04:32:58.048Z,102389.18
2022-08-07T04:34:02.948Z,102391.43
2022-08-07T04:35:11.412Z,102394.73
2022-08-07T04:36:14.916Z,102390.20
2022-08-07T04:37:20.452Z,102390.38
2022-08-07T04:38:25.575Z,102389.35
2022-08-07T04:39:29.396Z,102385.48
2022-08-07T04:40:51.224Z,102386.60
2022-08-07T04:41:57.387Z,102387.30
2022-08-07T04:43:03.524Z,102389.58
2022-08-07T04:44:16.164Z,102389.05
2022-08-07T04:45:57.941Z,102388.88
2022-08-07T04:47:07.583Z,102390.13
2022-08-07T04:48:28.523Z,102387.31
2022-08-07T04:50:04.106Z,102387.56
2022-08-07T04:51:32.097Z,102384.00
2022-08-07T04:52:51.381Z,102382.43
2022-08-07T04:54:12.970Z,102385.88
2022-08-07T04:58:15.000Z,102386.58
2022-08-07T04:58:15.329Z,102392.03
2022-08-07T04:59:07.662Z,102388.70
2022-08-07T05:00:11.373Z,102389.38
2022-08-07T05:01:51.341Z,102387.71
2022-08-07T05:03:02.898Z,102393.36
2022-08-07T05:04:26.395Z,102388.48
2022-08-07T05:05:53.874Z,102388.95
2022-08-07T05:06:53.307Z,102389.41
2022-08-07T05:08:12.695Z,102388.70
2022-08-07T05:09:45.955Z,102388.33
2022-08-07T05:11:19.394Z,102394.08
2022-08-07T05:12:30.609Z,102394.23
2022-08-07T05:14:53.901Z,102394.43
2022-08-07T05:15:21.788Z,102391.88
2022-08-07T05:16:29.318Z,102396.42
2022-08-07T05:17:52.045Z,102395.46
2022-08-07T05:19:02.199Z,102398.54
2022-08-07T05:20:09.578Z,102397.80
2022-08-07T05:21:14.844Z,102402.92
2022-08-07T05:22:26.804Z,102401.61
2022-08-07T05:23:40.991Z,102399.66
2022-08-07T05:24:46.150Z,102400.32
2022-08-07T05:26:13.306Z,102401.72
2022-08-07T05:28:01.966Z,102404.64
2022-08-07T05:28:48.484Z,102407.88
2022-08-07T05:29:53.882Z,102403.86
2022-08-07T05:30:58.978Z,102404.02
2022-08-07T05:32:06.354Z,102407.16
2022-08-07T05:33:13.045Z,102404.77
2022-08-07T05:34:19.017Z,102405.80
2022-08-07T05:35:23.911Z,102409.19
2022-08-07T05:36:42.236Z,102409.45
2022-08-07T05:38:09.044Z,102407.64
2022-08-07T05:40:13.500Z,102411.52
2022-08-07T05:40:50.599Z,102407.80
2022-08-07T05:42:01.251Z,102409.52
2022-08-07T05:43:06.887Z,102409.48
2022-08-07T05:44:17.227Z,102411.34
2022-08-07T05:45:46.572Z,102409.96
2022-08-07T05:46:52.462Z,102407.85
2022-08-07T05:48:01.421Z,102412.27
2022-08-07T05:49:12.341Z,102410.17
2022-08-07T05:50:17.865Z,102410.53
2022-08-07T05:51:22.596Z,102407.92
2022-08-07T05:52:32.600Z,102411.90
2022-08-07T05:54:13.913Z,102409.77
2022-08-07T05:55:07.279Z,102411.17
2022-08-07T05:56:15.743Z,102414.19
2022-08-07T05:57:23.805Z,102412.10
2022-08-07T05:58:36.358Z,102414.49
2022-08-07T05:59:55.918Z,102414.13
2022-08-07T06:01:05.042Z,102415.89
2022-08-07T06:02:13.644Z,102417.55
2022-08-07T06:03:23.008Z,102416.41
2022-08-07T06:04:30.150Z,102416.96
2022-08-07T06:05:34.383Z,102415.67
2022-08-07T06:06:41.406Z,102417.67
2022-08-07T06:08:12.961Z,102417.36
2022-08-07T06:09:14.932Z,102416.95
2022-08-07T06:10:21.090Z,102418.51
2022-08-07T06:11:25.899Z,102420.96
2022-08-07T06:12:32.992Z,102422.41
2022-08-07T06:14:13.138Z,102422.27
2022-08-07T06:15:05.534Z,102421.76
2022-08-07T06:16:10.325Z,102425.12
2022-08-07T06:17:18.034Z,102425.02
2022-08-07T06:18:21.669Z,102428.15
2022-08-07T06:19:47.790Z,102427.55
2022-08-07T06:20:50.350Z,102427.73
2022-08-07T06:22:23.041Z,102425.29
2022-08-07T06:24:37.285Z,102430.05
2022-08-07T06:24:56.846Z,102429.69
2022-08-07T06:26:04.926Z,102433.04
2022-08-07T06:27:10.250Z,102431.52
2022-08-07T06:28:14.852Z,102429.77
2022-08-07T06:29:18.138Z,102433.70
2022-08-07T06:30:32.335Z,102431.98
2022-08-07T06:31:50.417Z,102437.13
2022-08-07T06:32:57.224Z,102433.15
2022-08-07T06:34:00.722Z,102434.69
2022-08-07T06:35:17.612Z,102433.25
2022-08-07T06:36:35.034Z,102434.14
2022-08-07T06:37:43.488Z,102431.64
2022-08-07T06:38:59.460Z,102437.83
2022-08-07T06:40:19.936Z,102439.64
2022-08-07T06:41:29.376Z,102436.06
2022-08-07T06:42:51.540Z,102439.32
2022-08-07T06:44:13.328Z,102435.20
2022-08-07T06:45:23.961Z,102435.91
2022-08-07T06:46:35.289Z,102434.13
2022-08-07T06:47:57.574Z,102436.44
2022-08-07T06:49:16.390Z,102435.56
2022-08-07T06:50:23.275Z,102439.65
2022-08-07T06:51:33.899Z,102439.56
2022-08-07T06:52:45.210Z,102438.21
2022-08-07T06:55:29.001Z,102443.06
2022-08-07T06:55:32.148Z,102439.69
2022-08-07T06:56:49.459Z,102439.48
2022-08-07T06:58:11.798Z,102436.33
2022-08-07T07:00:12.603Z,102441.35
2022-08-07T07:00:46.325Z,102437.11
2022-08-07T07:01:51.077Z,102437.98
2022-08-07T07:02:57.982Z,102438.22
2022-08-07T07:04:28.611Z,102434.25
2022-08-07T07:06:02.600Z,102441.92
2022-08-07T07:07:00.131Z,102435.30
2022-08-07T07:08:07.183Z,102439.77
2022-08-07T07:09:16.531Z,102436.81
2022-08-07T07:10:36.170Z,102436.65
2022-08-07T07:12:07.553Z,102439.30
2022-08-07T07:13:11.254Z,102440.83
2022-08-07T07:14:15.646Z,102438.73
2022-08-07T07:15:35.724Z,102438.86
2022-08-07T07:16:49.969Z,102434.34
2022-08-07T07:18:02.427Z,102432.67
2022-08-07T07:19:34.127Z,102432.97
2022-08-07T07:20:51.853Z,102431.46
2022-08-07T07:22:05.089Z,102432.91
2022-08-07T07:24:06.491Z,102433.52
2022-08-07T07:24:39.470Z,102430.80
2022-08-07T07:26:32.255Z,102428.50
2022-08-07T07:27:11.965Z,102427.20
2022-08-07T07:28:42.507Z,102429.09
2022-08-07T07:30:07.384Z,102427.77
2022-08-07T07:31:44.431Z,102423.36
2022-08-07T07:32:51.048Z,102425.69
2022-08-07T07:33:57.497Z,102425.98
2022-08-07T07:35:03.855Z,102425.85
2022-08-07T07:36:13.117Z,102422.20
2022-08-07T07:37:45.535Z,102422.16
2022-08-07T07:38:46.158Z,102421.64
2022-08-07T07:39:55.364Z,102420.30
2022-08-07T07:41:02.644Z,102420.33
2022-08-07T07:42:13.749Z,102416.39
2022-08-07T07:43:27.682Z,102418.16
2022-08-07T07:44:49.586Z,102416.77
2022-08-07T07:46:50.050Z,102414.36
2022-08-07T07:47:23.919Z,102417.30
2022-08-07T07:48:35.900Z,102412.89
2022-08-07T07:50:33.698Z,102420.59
2022-08-07T07:51:03.464Z,102420.77
2022-08-07T07:52:12.983Z,102419.01
2022-08-07T07:53:22.899Z,102417.30
2022-08-07T07:54:29.973Z,102423.34
2022-08-07T07:55:45.766Z,102421.89
2022-08-07T07:56:59.177Z,102417.69
2022-08-07T07:58:05.075Z,102422.27
2022-08-07T07:59:09.873Z,102421.39
2022-08-07T08:00:20.761Z,102418.83
2022-08-07T08:02:03.374Z,102417.30
2022-08-07T08:03:05.722Z,102417.96
2022-08-07T08:04:11.993Z,102420.10
2022-08-07T08:05:16.420Z,102416.80
2022-08-07T08:06:20.132Z,102420.55
2022-08-07T08:07:24.635Z,102419.33
2022-08-07T08:08:42.061Z,102418.46
2022-08-07T08:09:52.533Z,102416.12
2022-08-07T08:11:16.039Z,102413.65
2022-08-07T08:12:50.138Z,102418.38
2022-08-07T08:13:53.846Z,102414.25
2022-08-07T08:14:58.190Z,102417.39
2022-08-07T08:16:01.951Z,102417.08
2022-08-07T08:17:55.266Z,102414.69
2022-08-07T08:18:30.567Z,102416.48
2022-08-07T08:20:17.976Z,102418.02
2022-08-07T08:21:00.224Z,102410.33
2022-08-07T08:22:24.123Z,102414.40
2022-08-07T08:23:54.850Z,102417.45
2022-08-07T08:25:27.058Z,102416.44
2022-08-07T08:27:09.255Z,102411.91
2022-08-07T08:28:24.047Z,102412.20
2022-08-07T08:29:54.252Z,102411.23
2022-08-07T08:31:00.348Z,102413.65
2022-08-07T08:32:17.819Z,102411.63
2022-08-07T08:33:23.464Z,102407.91
2022-08-07T08:34:28.981Z,102411.90
2022-08-07T08:35:39.507Z,102408.41
2022-08-07T08:36:57.771Z,102409.89
2022-08-07T08:38:04.858Z,102407.02
2022-08-07T08:39:08.959Z,102413.17
2022-08-07T08:40:28.617Z,102409.33
2022-08-07T08:41:57.311Z,102411.74
2022-08-07T08:43:03.661Z,102412.56
2022-08-07T08:44:36.307Z,102414.15
2022-08-07T08:46:02.073Z,102417.75
2022-08-07T08:47:14.226Z,102415.03
2022-08-07T08:48:35.998Z,102417.08
2022-08-07T08:50:05.068Z,102415.81
2022-08-07T08:52:00.792Z,102410.05
2022-08-07T08:53:02.472Z,102405.20
2022-08-07T08:54:10.970Z,102406.71
2022-08-07T08:55:54.394Z,102407.14
2022-08-07T08:56:49.945Z,102410.52
2022-08-07T08:58:01.787Z,102409.60
2022-08-07T08:59:16.400Z,102407.81
2022-08-07T09:00:21.022Z,102411.02
2022-08-07T09:01:40.229Z,102405.08
2022-08-07T09:02:52.251Z,102407.33
2022-08-07T09:04:06.977Z,102407.40
2022-08-07T09:05:36.885Z,102407.59
2022-08-07T09:07:03.657Z,102410.18
2022-08-07T09:08:06.948Z,102414.38
2022-08-07T09:09:29.772Z,102413.19
2022-08-07T09:10:36.244Z,102415.15
2022-08-07T09:11:55.434Z,102416.66
2022-08-07T09:13:14.683Z,102415.48
2022-08-07T09:14:29.656Z,102420.16
2022-08-07T09:16:25.527Z,102418.49
2022-08-07T09:17:03.026Z,102420.33
2022-08-07T09:18:33.574Z,102419.75
2022-08-07T09:19:51.268Z,102428.39
2022-08-07T09:21:00.835Z,102425.98
2022-08-07T09:22:22.616Z,102425.44
2022-08-07T09:24:35.133Z,102429.48
2022-08-07T09:25:14.761Z,102429.46
2022-08-07T09:26:32.605Z,102435.23
2022-08-07T09:28:05.086Z,102438.60
2022-08-07T09:30:01.766Z,102438.88
2022-08-07T09:31:09.433Z,102434.59
2022-08-07T09:32:17.301Z,102437.39
2022-08-07T09:33:53.187Z,102437.40
2022-08-07T09:36:04.890Z,102435.18
2022-08-07T09:36:39.389Z,102436.80
2022-08-07T09:37:54.229Z,102436.44
2022-08-07T09:39:52.761Z,102436.42
2022-08-07T09:40:46.180Z,102433.63
2022-08-07T09:42:05.833Z,102433.02
2022-08-07T09:43:10.798Z,102432.36
2022-08-07T09:44:58.388Z,102428.74
2022-08-07T09:47:25.851Z,102428.95
2022-08-07T09:47:59.481Z,102427.03
2022-08-07T09:50:01.118Z,102424.42
2022-08-07T09:50:34.448Z,102421.89
2022-08-07T09:52:15.606Z,102420.41
2022-08-07T09:53:12.519Z,102419.41
2022-08-07T09:54:21.949Z,102419.85
2022-08-07T09:56:02.420Z,102419.46
2022-08-07T09:57:06.037Z,102413.39
2022-08-07T09:58:32.074Z,102412.84
2022-08-07T10:00:01.223Z,102411.59
2022-08-07T10:01:51.201Z,102406.63
2022-08-07T10:04:06.406Z,102405.94
2022-08-07T10:04:53.042Z,102405.27
2022-08-07T10:06:02.632Z,102405.48
2022-08-07T10:07:27.582Z,102405.80
2022-08-07T10:08:44.305Z,102403.70
2022-08-07T10:10:02.496Z,102401.09
2022-08-07T10:11:59.477Z,102402.70
2022-08-07T10:12:53.102Z,102398.30
2022-08-07T10:14:11.234Z,102396.63
2022-08-07T10:15:15.096Z,102394.66
2022-08-07T10:16:33.697Z,102393.41
2022-08-07T10:18:01.874Z,102392.30
2022-08-07T10:19:17.201Z,102389.02
2022-08-07T10:20:31.812Z,102390.46
2022-08-07T10:22:12.020Z,102388.16
2022-08-07T10:23:08.246Z,102386.99
2022-08-07T10:24:21.609Z,102383.59
2022-08-07T10:25:42.143Z,102384.79
2022-08-07T10:26:53.251Z,102386.63
2022-08-07T10:27:56.518Z,102385.56
2022-08-07T10:29:18.166Z,102390.81
2022-08-07T10:30:26.389Z,102395.23
2022-08-07T10:31:49.542Z,102393.77
2022-08-07T10:33:12.975Z,102406.75
2022-08-07T10:34:27.215Z,102407.92
2022-08-07T10:35:55.548Z,102411.66
2022-08-07T10:37:15.743Z,102417.90
2022-08-07T10:38:42.283Z,102417.73
2022-08-07T10:39:57.559Z,102415.23
2022-08-07T10:41:06.851Z,102411.65
2022-08-07T10:42:31.195Z,102411.06
2022-08-07T10:44:07.349Z,102407.02
2022-08-07T10:45:45.297Z,102405.17
2022-08-07T10:46:55.806Z,102408.25
2022-08-07T10:48:10.933Z,102402.75
2022-08-07T10:49:49.236Z,102402.81
2022-08-07T10:50:55.748Z,102397.23
2022-08-07T10:52:13.195Z,102396.70
2022-08-07T10:53:41.760Z,102397.23
2022-08-07T10:55:32.659Z,102396.68
2022-08-07T10:56:39.495Z,102397.41
2022-08-07T10:57:57.833Z,102393.83
2022-08-07T10:59:13.496Z,102395.60
2022-08-07T11:00:39.638Z,102390.64
2022-08-07T11:02:11.955Z,102387.33
2022-08-07T11:03:16.354Z,102385.45
2022-08-07T11:04:31.802Z,102380.23
2022-08-07T11:05:54.661Z,102380.30
2022-08-07T11:07:15.153Z,102377.52
2022-08-07T11:08:52.895Z,102376.13
2022-08-07T11:10:08.553Z,102376.57
2022-08-07T11:11:31.190Z,102370.86
2022-08-07T11:12:43.514Z,102371.36
2022-08-07T11:14:57.445Z,102368.61
2022-08-07T11:15:17.633Z,102367.60
2022-08-07T11:16:29.806Z,102365.06
2022-08-07T11:18:09.589Z,102360.21
2022-08-07T11:19:21.442Z,102355.12
2022-08-07T11:20:35.792Z,102353.74
2022-08-07T11:22:26.547Z,102351.66
2022-08-07T11:23:45.516Z,102351.54
2022-08-07T11:25:13.260Z,102348.81
2022-08-07T11:26:24.284Z,102340.30
2022-08-07T11:28:03.208Z,102361.64
2022-08-07T11:29:42.152Z,102359.60
2022-08-07T11:30:53.469Z,102356.92
2022-08-07T11:32:13.960Z,102363.70
2022-08-07T11:33:53.457Z,102367.41
2022-08-07T11:34:59.707Z,102367.63
2022-08-07T11:36:10.862Z,102364.40
2022-08-07T11:37:38.456Z,102364.40
2022-08-07T11:38:58.027Z,102368.31
2022-08-07T11:40:19.262Z,102364.55
2022-08-07T11:42:00.425Z,102364.73
2022-08-07T11:43:05.277Z,102368.89
2022-08-07T11:44:12.830Z,102371.19
2022-08-07T11:45:37.468Z,102366.97
2022-08-07T11:46:50.123Z,102369.09
2022-08-07T11:48:02.634Z,102371.59
2022-08-07T11:49:50.172Z,102372.96
2022-08-07T11:50:32.671Z,102376.20
2022-08-07T11:51:44.985Z,102378.05
2022-08-07T11:53:05.058Z,102377.39
2022-08-07T11:54:26.655Z,102375.15
2022-08-07T11:56:09.553Z,102377.09
2022-08-07T11:57:18.897Z,102374.73
2022-08-07T11:58:24.985Z,102377.53
2022-08-07T12:00:12.422Z,102379.39
2022-08-07T12:02:00.012Z,102385.65
2022-08-07T12:03:41.538Z,102387.73
2022-08-07T12:04:41.280Z,102387.83
2022-08-07T12:06:00.427Z,102388.50
2022-08-07T12:07:29.419Z,102388.20
2022-08-07T12:08:42.726Z,102385.91
2022-08-07T12:09:58.812Z,102385.42
2022-08-07T12:11:20.745Z,102384.05
2022-08-07T12:12:25.658Z,102384.37
2022-08-07T12:13:47.825Z,102382.11
2022-08-07T12:15:35.904Z,102383.61
2022-08-07T12:17:05.836Z,102379.02
2022-08-07T12:18:12.493Z,102384.51
2022-08-07T12:19:22.216Z,102380.40
2022-08-07T12:20:43.530Z,102374.59
2022-08-07T12:22:37.258Z,102377.23
2022-08-07T12:24:05.940Z,102372.14
2022-08-07T12:26:02.822Z,102374.35
2022-08-07T12:26:49.473Z,102371.88
2022-08-07T12:28:09.963Z,102367.81
2022-08-07T12:29:38.090Z,102366.98
2022-08-07T12:30:46.822Z,102364.00
2022-08-07T12:32:04.209Z,102364.04
2022-08-07T12:33:23.137Z,102365.28
2022-08-07T12:34:33.395Z,102365.08
2022-08-07T12:35:37.053Z,102363.54
2022-08-07T12:36:40.900Z,102365.56
2022-08-07T12:38:10.201Z,102364.29
2022-08-07T12:39:42.807Z,102364.33
2022-08-07T12:40:47.728Z,102362.17
2022-08-07T12:41:53.014Z,102367.54
2022-08-07T12:42:57.573Z,102360.98
2022-08-07T12:44:05.919Z,102362.17
2022-08-07T12:45:18.361Z,102361.34
2022-08-07T12:46:32.514Z,102363.11
2022-08-07T12:47:46.407Z,102358.61
2022-08-07T12:49:09.884Z,102360.84
2022-08-07T12:50:50.009Z,102362.46
2022-08-07T12:52:13.691Z,102360.14
2022-08-07T12:53:22.400Z,102364.87
2022-08-07T12:54:37.081Z,102364.91
2022-08-07T12:56:03.076Z,102366.04
2022-08-07T12:57:10.117Z,102363.80
2022-08-07T12:58:15.886Z,102361.20
2022-08-07T12:59:21.691Z,102362.73
2022-08-07T13:00:33.042Z,102358.55
2022-08-07T13:02:03.173Z,102361.65
2022-08-07T13:03:23.031Z,102361.13
2022-08-07T13:04:49.307Z,102366.73
2022-08-07T13:06:27.858Z,102364.32
2022-08-07T13:08:14.363Z,102367.27
2022-08-07T13:10:18.782Z,102365.50
2022-08-07T13:11:03.765Z,102366.24
2022-08-07T13:12:15.380Z,102366.14
2022-08-07T13:13:47.116Z,102365.52
2022-08-07T13:14:56.750Z,102366.98
2022-08-07T13:16:10.730Z,102363.30
2022-08-07T13:17:23.081Z,102357.20
2022-08-07T13:19:01.933Z,102355.27
2022-08-07T13:20:08.299Z,102356.48
2022-08-07T13:21:37.338Z,102357.28
2022-08-07T13:22:53.446Z,102360.04
2022-08-07T13:24:15.457Z,102354.50
2022-08-07T13:25:30.881Z,102347.33
2022-08-07T13:26:39.179Z,102350.67
2022-08-07T13:28:11.480Z,102347.94
2022-08-07T13:29:20.463Z,102345.23
2022-08-07T13:30:41.135Z,102350.27
2022-08-07T13:31:57.905Z,102350.26
2022-08-07T13:34:14.495Z,102348.45
2022-08-07T13:34:51.310Z,102351.39
2022-08-07T13:36:05.566Z,102353.34
2022-08-07T13:37:25.760Z,102356.91
2022-08-07T13:38:28.971Z,102357.59
2022-08-07T13:40:34.092Z,102358.05
2022-08-07T13:41:17.768Z,102359.41
2022-08-07T13:42:25.113Z,102359.16
2022-08-07T13:43:34.355Z,102358.86
2022-08-07T13:44:39.574Z,102357.60
2022-08-07T13:46:12.043Z,102357.14
2022-08-07T13:47:15.780Z,102356.30
2022-08-07T13:48:33.851Z,102353.98
2022-08-07T13:50:35.354Z,102352.33
2022-08-07T13:51:03.535Z,102357.32
2022-08-07T13:52:32.508Z,102351.19
2022-08-07T13:54:00.129Z,102355.30
2022-08-07T13:55:10.912Z,102352.46
2022-08-07T13:56:20.446Z,102349.86
2022-08-07T13:57:59.270Z,102349.29
2022-08-07T13:59:10.409Z,102348.74
2022-08-07T14:00:26.884Z,102349.30
2022-08-07T14:01:33.224Z,102349.86
2022-08-07T14:02:56.188Z,102348.13
2022-08-07T14:04:08.215Z,102350.58
2022-08-07T14:05:13.336Z,102349.54
2022-08-07T14:06:19.861Z,102348.42
2022-08-07T14:07:24.632Z,102350.60
2022-08-07T14:08:28.100Z,102353.17
2022-08-07T14:10:01.974Z,102345.63
2022-08-07T14:11:14.638Z,102349.02
2022-08-07T14:12:27.628Z,102349.87
2022-08-07T14:13:33.338Z,102345.67
2022-08-07T14:14:46.222Z,102349.52
2022-08-07T14:15:54.439Z,102355.34
2022-08-07T14:17:13.183Z,102346.52
2022-08-07T14:18:30.598Z,102347.48
2022-08-07T14:20:43.085Z,102346.97
2022-08-07T14:21:11.699Z,102352.19
2022-08-07T14:22:34.358Z,102352.78